createdAt,value
2022-12-22T00:00:42.462Z,95441.94
2022-12-22T00:06:02.490Z,95425.72
2022-12-22T00:11:28.769Z,95432.72
2022-12-22T00:16:54.771Z,95428.84
2022-12-22T00:22:19.697Z,95431.56
2022-12-22T00:27:48.121Z,95421.16
2022-12-22T00:33:08.309Z,95414.97
2022-12-22T00:38:39.486Z,95408.41
2022-12-22T00:43:59.735Z,95409.91
2022-12-22T00:49:20.674Z,95415.31
2022-12-22T00:54:41.925Z,95397.88
2022-12-22T01:00:02.342Z,95399.81
2022-12-22T01:05:22.710Z,95388.56
2022-12-22T01:10:44.863Z,95388.09
2022-12-22T01:16:05.213Z,95378.75
2022-12-22T01:21:25.447Z,95381.41
2022-12-22T01:26:46.133Z,95379.75
2022-12-22T01:32:06.343Z,95375.84
2022-12-22T01:37:26.599Z,95368.88
2022-12-22T01:42:47.330Z,95360.06
2022-12-22T01:48:07.564Z,95358.47
2022-12-22T01:53:33.517Z,95355.34
2022-12-22T01:58:58.871Z,95347.22
2022-12-22T02:04:19.888Z,95339.13
2022-12-22T02:10:02.894Z,95331.81
2022-12-22T02:15:36.627Z,95320.19
2022-12-22T02:21:12.433Z,95327.94
2022-12-22T02:26:46.989Z,95332.59
2022-12-22T02:32:07.029Z,95327.16
2022-12-22T02:37:46.200Z,95324.81
2022-12-22T02:43:48.072Z,95329.44
2022-12-22T02:49:18.903Z,95320.19
2022-12-22T02:54:41.283Z,95328.69
2022-12-22T03:00:01.260Z,95320.91
2022-12-22T03:05:21.578Z,95309.66
2022-12-22T03:10:41.707Z,95309.66
2022-12-22T03:16:01.903Z,95301.19
2022-12-22T03:21:22.108Z,95285.75
2022-12-22T03:26:23.827Z,95280.34
2022-12-22T03:31:25.520Z,95275.69
2022-12-22T03:36:27.280Z,95256.06
2022-12-22T03:41:47.507Z,95260.75
2022-12-22T03:46:49.087Z,95254.56
2022-12-22T03:51:51.992Z,95251.47
2022-12-22T03:56:54.366Z,95249.19
2022-12-22T04:01:56.031Z,95252.66
2022-12-22T04:06:58.202Z,95246.91
2022-12-22T04:12:18.448Z,95240.75
2022-12-22T04:17:19.969Z,95246.59
2022-12-22T04:22:21.515Z,95243.94
2022-12-22T04:27:23.027Z,95233.50
2022-12-22T04:32:24.533Z,95234.25
2022-12-22T04:37:26.290Z,95231.97
2022-12-22T04:42:27.876Z,95231.28
2022-12-22T04:47:29.367Z,95219.28
2022-12-22T04:52:30.896Z,95206.59
2022-12-22T04:57:38.614Z,95204.31
2022-12-22T05:02:42.035Z,95190.41
2022-12-22T05:07:44.059Z,95191.59
2022-12-22T05:12:54.547Z,95183.47
2022-12-22T05:17:57.070Z,95197.00
2022-12-22T05:22:58.788Z,95187.75
2022-12-22T05:28:00.268Z,95183.88
2022-12-22T05:33:02.102Z,95177.72
2022-12-22T05:38:03.677Z,95166.88
2022-12-22T05:43:05.737Z,95178.13
2022-12-22T05:48:07.267Z,95163.00
2022-12-22T05:53:08.850Z,95155.31
2022-12-22T05:58:10.346Z,95158.00
2022-12-22T06:03:11.982Z,95157.59
2022-12-22T06:08:13.668Z,95156.84
2022-12-22T06:13:15.293Z,95151.13
2022-12-22T06:18:16.989Z,95157.38
2022-12-22T06:23:18.617Z,95149.25
2022-12-22T06:28:20.142Z,95146.59
2022-12-22T06:33:21.722Z,95141.56
2022-12-22T06:38:23.206Z,95141.56
2022-12-22T06:43:25.781Z,95150.53
2022-12-22T06:48:27.328Z,95154.84
2022-12-22T06:53:28.819Z,95153.41
2022-12-22T06:58:30.320Z,95148.44
2022-12-22T07:03:31.867Z,95156.66
2022-12-22T07:08:33.674Z,95157.91
2022-12-22T07:13:35.823Z,95154.88
2022-12-22T07:18:41.092Z,95145.66
2022-12-22T07:23:42.771Z,95152.66
2022-12-22T07:28:44.366Z,95137.59
2022-12-22T07:33:45.953Z,95122.16
2022-12-22T07:38:50.480Z,95122.22
2022-12-22T07:43:57.451Z,95120.28
2022-12-22T07:49:17.714Z,95120.34
2022-12-22T07:54:19.227Z,95120.38
2022-12-22T07:59:21.188Z,95107.63
2022-12-22T08:04:22.912Z,95101.88
2022-12-22T08:09:24.537Z,95104.63
2022-12-22T08:14:26.068Z,95090.28
2022-12-22T08:19:27.638Z,95105.06
2022-12-22T08:24:29.380Z,95098.06
2022-12-22T08:29:37.615Z,95099.25
2022-12-22T08:34:40.097Z,95107.84
2022-12-22T08:39:43.960Z,95099.41
2022-12-22T08:44:47.258Z,95108.75
2022-12-22T08:49:49.962Z,95097.94
2022-12-22T08:54:51.469Z,95105.72
2022-12-22T08:59:52.944Z,95102.63
2022-12-22T09:04:54.508Z,95092.19
2022-12-22T09:09:57.921Z,95101.94
2022-12-22T09:14:59.485Z,95108.53
2022-12-22T09:20:00.979Z,95095.75
2022-12-22T09:25:02.567Z,95083.78
2022-12-22T09:30:04.444Z,95085.75
2022-12-22T09:35:06.435Z,95079.97
2022-12-22T09:40:08.688Z,95072.56
2022-12-22T09:45:20.030Z,95068.28
2022-12-22T09:50:24.069Z,95066.75
2022-12-22T09:55:25.492Z,95069.06
2022-12-22T10:00:28.285Z,95071.41
2022-12-22T10:05:38.398Z,95075.25
2022-12-22T10:10:40.415Z,95069.06
2022-12-22T10:15:42.292Z,95076.41
2022-12-22T10:21:07.355Z,95060.84
2022-12-22T10:26:28.119Z,95056.53
2022-12-22T10:31:34.125Z,95043.28
2022-12-22T10:36:36.740Z,95050.22
2022-12-22T10:41:43.731Z,95054.53
2022-12-22T10:46:49.087Z,95050.59
2022-12-22T10:52:13.582Z,95065.41
2022-12-22T10:57:15.080Z,95057.19
2022-12-22T11:02:39.071Z,95048.63
2022-12-22T11:07:43.139Z,95049.78
2022-12-22T11:13:09.751Z,95035.34
2022-12-22T11:18:17.367Z,95029.91
2022-12-22T11:23:21.813Z,95016.22
2022-12-22T11:28:36.923Z,95032.19
2022-12-22T11:33:53.707Z,95030.59
2022-12-22T11:39:07.055Z,95021.25
2022-12-22T11:44:23.886Z,95022.81
2022-12-22T11:49:53.690Z,95026.31
2022-12-22T11:55:14.687Z,95017.41
2022-12-22T12:00:19.290Z,94998.69
2022-12-22T12:05:40.615Z,94995.97
2022-12-22T12:10:47.343Z,94989.75
2022-12-22T12:15:57.519Z,94985.88
2022-12-22T12:21:28.545Z,94987.44
2022-12-22T12:26:54.031Z,94990.94
2022-12-22T12:32:04.176Z,94988.56
2022-12-22T12:37:26.600Z,94990.53
2022-12-22T12:42:44.748Z,94980.41
2022-12-22T12:47:46.297Z,94995.19
2022-12-22T12:52:48.794Z,94988.56
2022-12-22T12:57:51.664Z,95002.59
2022-12-22T13:02:57.992Z,95009.19
2022-12-22T13:08:14.597Z,94996.38
2022-12-22T13:13:25.476Z,95009.63
2022-12-22T13:18:28.334Z,95013.13
2022-12-22T13:24:06.187Z,95006.94
2022-12-22T13:29:07.013Z,95009.28
2022-12-22T13:35:28.350Z,95008.81
2022-12-22T13:40:25.566Z,95012.31
2022-12-22T13:45:36.160Z,95011.56
2022-12-22T13:50:42.598Z,95012.72
2022-12-22T13:55:47.897Z,95006.47
2022-12-22T14:01:01.941Z,95014.25
2022-12-22T14:06:18.951Z,95026.72
2022-12-22T14:11:21.193Z,95026.31
2022-12-22T14:16:22.726Z,95024.78
2022-12-22T14:21:24.367Z,95031.78
2022-12-22T14:26:29.615Z,95024.44
2022-12-22T14:31:31.173Z,95032.94
2022-12-22T14:36:40.807Z,95055.91
2022-12-22T14:41:51.641Z,95035.28
2022-12-22T14:47:06.079Z,95071.47
2022-12-22T14:52:15.712Z,95064.09
2022-12-22T14:57:25.071Z,95096.00
2022-12-22T15:02:39.031Z,95093.63
2022-12-22T15:08:09.262Z,95092.81
2022-12-22T15:13:18.557Z,95090.88
2022-12-22T15:18:25.648Z,95096.31
2022-12-22T15:23:27.170Z,95114.19
2022-12-22T15:28:28.763Z,95108.72
2022-12-22T15:33:31.059Z,95122.34
2022-12-22T15:38:38.474Z,95139.50
2022-12-22T15:43:58.227Z,95160.91
2022-12-22T15:49:00.935Z,95153.06
2022-12-22T15:54:04.477Z,95145.69
2022-12-22T15:59:06.222Z,95165.13
2022-12-22T16:04:07.853Z,95173.31
2022-12-22T16:09:18.288Z,95169.81
2022-12-22T16:14:21.318Z,95170.16
2022-12-22T16:19:22.878Z,95178.00
2022-12-22T16:24:35.447Z,95186.13
2022-12-22T16:29:37.590Z,95191.59
2022-12-22T16:34:39.227Z,95179.53
2022-12-22T16:39:40.823Z,95182.66
2022-12-22T16:44:43.162Z,95186.94
2022-12-22T16:49:46.935Z,95183.03
2022-12-22T16:54:52.631Z,95204.06
2022-12-22T16:59:54.495Z,95206.75
2022-12-22T17:05:01.193Z,95205.59
2022-12-22T17:10:02.799Z,95208.31
2022-12-22T17:15:04.587Z,95220.00
2022-12-22T17:20:06.880Z,95231.28
2022-12-22T17:25:17.765Z,95216.50
2022-12-22T17:30:22.564Z,95224.28
2022-12-22T17:35:29.084Z,95211.44
2022-12-22T17:40:31.121Z,95209.88
2022-12-22T17:45:32.788Z,95216.50
2022-12-22T17:50:35.295Z,95213.75
2022-12-22T18:00:58.597Z,95223.13
2022-12-22T18:06:00.190Z,95214.53
2022-12-22T18:11:02.197Z,95204.44
2022-12-22T18:16:04.017Z,95214.91
2022-12-22T18:21:08.271Z,95218.41
2022-12-22T18:26:41.436Z,95212.53
2022-12-22T18:31:44.271Z,95228.16
2022-12-22T18:36:47.715Z,95220.75
2022-12-22T18:41:49.413Z,95223.88
2022-12-22T18:46:53.177Z,95220.38
2022-12-22T18:51:57.083Z,95228.97
2022-12-22T18:56:58.693Z,95217.25
2022-12-22T19:02:19.278Z,95211.81
2022-12-22T19:07:23.307Z,95206.34
2022-12-22T19:12:25.275Z,95207.13
2022-12-22T19:17:28.832Z,95212.16
2022-12-22T19:22:30.623Z,95203.97
2022-12-22T19:27:33.041Z,95202.03
2022-12-22T19:32:42.282Z,95199.69
2022-12-22T19:37:48.769Z,95195.41
2022-12-22T19:42:53.373Z,95193.03
2022-12-22T19:47:57.138Z,95182.13
2022-12-22T19:52:59.410Z,95189.16
2022-12-22T19:58:02.241Z,95193.44
2022-12-22T20:03:05.948Z,95192.66
2022-12-22T20:08:07.831Z,95187.59
2022-12-22T20:13:21.648Z,95177.47
2022-12-22T20:18:27.449Z,95167.34
2022-12-22T20:23:31.281Z,95162.31
2022-12-22T20:28:36.691Z,95144.81
2022-12-22T20:33:38.278Z,95139.78
2022-12-22T20:38:41.874Z,95134.00
2022-12-22T20:43:43.632Z,95141.03
2022-12-22T20:48:55.889Z,95135.25
2022-12-22T20:53:58.357Z,95136.41
2022-12-22T20:59:12.510Z,95140.69
2022-12-22T21:04:15.049Z,95132.50
2022-12-22T21:09:17.405Z,95116.97
2022-12-22T21:14:19.023Z,95120.88
2022-12-22T21:19:20.684Z,95118.19
2022-12-22T21:24:22.209Z,95112.72
2022-12-22T21:29:26.801Z,95110.38
2022-12-22T21:34:28.280Z,95108.44
2022-12-22T21:39:39.376Z,95090.53
2022-12-22T21:44:41.009Z,95094.84
2022-12-22T21:49:42.600Z,95096.78
2022-12-22T21:54:44.126Z,95095.22
2022-12-22T21:59:45.836Z,95081.22
2022-12-22T22:04:54.258Z,95076.19
2022-12-22T22:09:56.725Z,95080.47
2022-12-22T22:14:58.387Z,95065.69
2022-12-22T22:19:59.951Z,95067.25
2022-12-22T22:25:01.507Z,95058.28
2022-12-22T22:30:04.554Z,95057.47
2022-12-22T22:35:06.280Z,95053.22
2022-12-22T22:40:09.858Z,95042.69
2022-12-22T22:45:15.777Z,95033.75
2022-12-22T22:50:18.923Z,95020.16
2022-12-22T22:55:20.553Z,95011.56
2022-12-22T23:00:22.769Z,95005.34
2022-12-22T23:05:24.726Z,95006.91
2022-12-22T23:10:26.413Z,94992.50
2022-12-22T23:15:28.137Z,94985.88
2022-12-22T23:20:29.687Z,94981.19
2022-12-22T23:25:31.314Z,94982.75
2022-12-22T23:30:32.872Z,94971.09
2022-12-22T23:35:39.350Z,94960.59
2022-12-22T23:40:52.444Z,94957.53
2022-12-22T23:45:54.921Z,94953.28
2022-12-22T23:50:56.455Z,94937.34
2022-12-22T23:55:58.187Z,94926.88
